Latest Coastal Weather Observations for Troughton Island

IDD60701

Issued at 4:11 pm CST Friday 21 July 2017 (issued every 10 minutes, with the page automatically refreshed every 10 minutes)

About coastal observations | Map of coastal stations | Coastal observations for NT | Marine services | Other Formats
Station Details ID: 001007 Name: TROUGHTON ISLAND Lat: -13.75 Lon: 126.15 Height: 6.0 m
Data from the previous 72 hours. | See also: Recent months at Troughton Island
Date/Time
CST
Temp
°C
Wind Pressure Rain since
9am
mm
Weather Cloud Vis
km
Sea
Height
m
Swell
Dir  Spd
kts
Gust
kts
hPa Trend Height
m
Period
s
Dir
21/04:00pm 27.6 ENE 17 21 1013.6 - 0.0 - - - - - - -
21/03:30pm 27.9 ENE 18 22 1013.8 - 0.0 - - - - - - -
21/03:00pm 28.1 ENE 19 23 1014.0 - 0.0 - - - - - - -
21/02:30pm 27.8 ENE 17 22 1014.4 - 0.0 - - - - - - -
21/02:00pm 27.9 ENE 18 22 1014.7 - 0.0 - - - - - - -
21/01:30pm 29.2 E 12 19 1015.0 - 0.0 - - - - - - -
21/01:00pm 27.9 E 11 14 1015.4 - 0.0 - - - - - - -
21/12:30pm 28.7 E 13 16 1015.6 - 0.0 - - - - - - -
21/12:00pm 27.6 ESE 13 15 1016.0 - 0.0 - - - - - - -
21/11:30am 27.1 ESE 14 17 1016.3 - 0.0 - - - - - - -
21/11:00am 27.2 ESE 14 17 1016.4 - 0.0 - - - - - - -
21/10:30am 26.7 ESE 16 19 1016.5 - 0.0 - - - - - - -
21/10:00am 26.5 ESE 15 18 1016.5 - 0.0 - - - - - - -
21/09:30am 26.2 ESE 15 18 1016.1 - 0.0 - - - - - - -
21/09:00am 25.9 ESE 14 16 1015.6 - 0.0 - - - - - - -
21/08:30am 25.2 SE 12 14 1015.0 - 0.0 - - - - - - -
21/08:00am 24.3 SE 11 13 1014.6 - 0.0 - - - - - - -
21/07:30am 23.6 SSE 10 12 1014.1 - 0.0 - - - - - - -
21/07:00am 23.5 SSE 11 13 1013.8 - 0.0 - - - - - - -
21/06:30am 23.8 SE 10 13 1013.6 - 0.0 - - - - - - -
21/06:00am 23.5 SE 9 11 1013.4 - 0.0 - - - - - - -
21/05:30am 23.3 SE 9 10 1013.2 - 0.0 - - - - - - -
21/05:00am 23.6 SE 9 11 1013.2 - 0.0 - - - - - - -
21/04:30am 24.3 ESE 8 9 1013.2 - 0.0 - - - - - - -
21/04:00am 24.6 ESE 7 8 1013.2 - 0.0 - - - - - - -
21/03:30am 24.8 E 7 8 1013.4 - 0.0 - - - - - - -
21/03:00am 25.1 ENE 8 9 1013.5 - 0.0 - - - - - - -
21/02:30am 25.0 ENE 9 11 1014.0 - 0.0 - - - - - - -
21/02:00am 25.1 ENE 10 12 1014.2 - 0.0 - - - - - - -
21/01:30am 25.3 ENE 11 14 1014.3 - 0.0 - - - - - - -
21/01:00am 25.4 ENE 11 15 1014.4 - 0.0 - - - - - - -
21/12:30am 25.4 ENE 13 15 1014.5 - 0.0 - - - - - - -
21/12:00am 25.3 ENE 14 16 1014.5 - 0.0 - - - - - - -
 
Date/Time
CST
Temp
°C
Wind Pressure Rain since
9am
mm
Weather Cloud Vis
km
Sea
Height
m
Swell
Dir  Spd
kts
Gust
kts
hPa Trend Height
m
Period
s
Dir
20/11:30pm 25.4 ENE 15 17 1014.5 - 0.0 - - - - - - -
20/11:00pm 25.3 ENE 16 19 1014.7 - 0.0 - - - - - - -
20/10:30pm 25.4 ENE 17 21 1014.5 - 0.0 - - - - - - -
20/10:00pm 25.5 ENE 17 20 1014.5 - 0.0 - - - - - - -
20/09:30pm 25.5 ENE 18 21 1014.3 - 0.0 - - - - - - -
20/09:00pm 25.5 ENE 18 22 1014.1 - 0.0 - - - - - - -
20/08:30pm 25.4 ENE 19 22 1013.8 - 0.0 - - - - - - -
20/08:00pm 25.4 ENE 19 22 1013.2 - 0.0 - - - - - - -
20/07:30pm 25.5 ENE 19 23 1012.7 - 0.0 - - - - - - -
20/07:00pm 25.6 ENE 19 23 1012.4 - 0.0 - - - - - - -
20/06:30pm 25.7 ENE 20 24 1011.9 - 0.0 - - - - - - -
20/06:00pm 26.3 ENE 19 23 1011.6 - 0.0 - - - - - - -
20/05:30pm 27.1 ENE 18 22 1011.5 - 0.0 - - - - - - -
20/05:00pm 27.5 ENE 17 21 1011.4 - 0.0 - - - - - - -
20/04:30pm 28.0 ENE 16 19 1011.2 - 0.0 - - - - - - -
20/04:00pm 28.1 ENE 14 17 1011.4 - 0.0 - - - - - - -
20/03:30pm 28.3 ENE 13 16 1011.5 - 0.0 - - - - - - -
20/03:00pm 29.2 E 12 14 1011.7 - 0.0 - - - - - - -
20/02:30pm 29.3 E 9 10 1012.0 - 0.0 - - - - - - -
20/02:00pm 28.2 E 9 11 1012.6 - 0.0 - - - - - - -
20/01:30pm 28.5 E 10 12 1013.1 - 0.0 - - - - - - -
20/01:00pm 29.0 ESE 10 12 1013.6 - 0.0 - - - - - - -
20/12:30pm 28.7 ESE 11 14 1014.0 - 0.0 - - - - - - -
20/12:00pm 28.4 ESE 14 17 1014.3 - 0.0 - - - - - - -
20/11:30am 27.9 ESE 14 17 1014.6 - 0.0 - - - - - - -
20/11:00am 28.5 ESE 15 19 1014.8 - 0.0 - - - - - - -
20/10:30am 28.4 SE 13 16 1014.9 - 0.0 - - - - - - -
20/10:00am 27.3 SE 11 15 1015.0 - 0.0 - - - - - - -
20/09:30am 26.9 SE 12 14 1014.8 - 0.0 - - - - - - -
20/09:00am 26.4 SE 9 11 1014.5 - 0.0 - - - - - - -
20/08:30am 25.9 SE 9 10 1014.3 - 0.0 - - - - - - -
20/08:00am 24.6 SE 9 10 1014.1 - 0.0 - - - - - - -
20/07:30am 24.2 SSE 9 11 1013.8 - 0.0 - - - - - - -
20/07:00am 24.3 SSE 10 11 1013.5 - 0.0 - - - - - - -
20/06:30am 23.5 SSE 7 9 1013.3 - 0.0 - - - - - - -
20/06:00am 23.5 SSE 6 7 1013.2 - 0.0 - - - - - - -
20/05:30am 23.8 S 7 8 1013.1 - 0.0 - - - - - - -
20/05:00am 23.8 SSW 6 7 1012.8 - 0.0 - - - - - - -
20/04:30am 23.6 SSW 6 8 1012.8 - 0.0 - - - - - - -
20/04:00am 23.1 S 6 8 1012.9 - 0.0 - - - - - - -
20/03:30am 23.0 SSE 6 7 1013.2 - 0.0 - - - - - - -
20/03:00am 23.7 ESE 5 6 1013.2 - 0.0 - - - - - - -
20/02:30am 24.1 ESE 6 6 1013.3 - 0.0 - - - - - - -
20/02:00am 25.0 E 6 6 1013.5 - 0.0 - - - - - - -
20/01:30am 25.2 E 6 7 1013.7 - 0.0 - - - - - - -
20/01:00am 25.6 E 7 8 1013.9 - 0.0 - - - - - - -
20/12:30am 25.7 E 7 9 1014.2 - 0.0 - - - - - - -
20/12:00am 25.8 E 8 9 1014.2 - 0.0 - - - - - - -
 
Date/Time
CST
Temp
°C
Wind Pressure Rain since
9am
mm
Weather Cloud Vis
km
Sea
Height
m
Swell
Dir  Spd
kts
Gust
kts
hPa Trend Height
m
Period
s
Dir
19/11:30pm 26.2 ENE 9 11 1014.3 - 0.0 - - - - - - -
19/11:00pm 26.2 ENE 11 13 1014.5 - 0.0 - - - - - - -
19/10:30pm 26.3 ENE 12 14 1014.6 - 0.0 - - - - - - -
19/10:00pm 26.4 ENE 12 14 1014.4 - 0.0 - - - - - - -
19/09:30pm 26.6 ENE 13 16 1014.3 - 0.0 - - - - - - -
19/09:00pm 26.5 ENE 12 14 1013.9 - 0.0 - - - - - - -
19/08:30pm 26.4 ENE 13 15 1013.6 - 0.0 - - - - - - -
19/08:00pm 26.3 ENE 13 16 1013.2 - 0.0 - - - - - - -
19/07:30pm 26.4 ENE 12 14 1013.0 - 0.0 - - - - - - -
19/07:00pm 26.5 NE 11 14 1012.7 - 0.0 - - - - - - -
19/06:30pm 26.9 NE 13 15 1012.4 - 0.0 - - - - - - -
19/06:00pm 27.3 NE 13 17 1012.2 - 0.0 - - - - - - -
19/05:30pm 28.1 ENE 13 17 1012.0 - 0.0 - - - - - - -
19/05:00pm 28.9 ENE 13 16 1012.0 - 0.0 - - - - - - -
19/04:30pm 29.0 ENE 13 17 1011.9 - 0.0 - - - - - - -
19/04:00pm 28.9 ENE 13 17 1012.1 - 0.0 - - - - - - -
19/03:30pm 29.2 ENE 9 11 1012.5 - 0.0 - - - - - - -
19/03:00pm 29.3 NE 8 10 1012.8 - 0.0 - - - - - - -
19/02:30pm 29.3 NE 8 10 1013.2 - 0.0 - - - - - - -
19/02:00pm 29.3 ENE 7 8 1013.8 - 0.0 - - - - - - -
19/01:30pm 29.1 ENE 8 10 1014.1 - 0.0 - - - - - - -
19/01:00pm 29.6 ESE 8 9 1014.5 - 0.0 - - - - - - -
19/12:30pm 29.6 ESE 10 12 1014.8 - 0.0 - - - - - - -
19/12:00pm 29.5 ESE 11 14 1015.2 - 0.0 - - - - - - -
19/11:30am 28.1 SE 10 12 1015.6 - 0.0 - - - - - - -
19/11:00am 28.3 SSE 9 10 1015.6 - 0.0 - - - - - - -
19/10:30am 27.5 SSE 8 9 1015.8 - 0.0 - - - - - - -
19/10:00am 27.2 SSE 7 9 1016.0 - 0.0 - - - - - - -
19/09:30am 26.9 S 7 9 1015.9 - 0.0 - - - - - - -
19/09:00am 26.2 S 7 8 1015.8 - 0.0 - - - - - - -
19/08:30am 25.6 SSE 8 9 1015.6 - 0.0 - - - - - - -
19/08:00am 24.8 SSE 9 10 1015.2 - 0.0 - - - - - - -
19/07:30am 24.6 S 10 11 1014.9 - 0.0 - - - - - - -
19/07:00am 24.7 S 8 11 1014.5 - 0.0 - - - - - - -
19/06:30am 25.0 S 10 11 1014.3 - 0.0 - - - - - - -
19/06:00am 25.0 S 9 11 1014.3 - 0.0 - - - - - - -
19/05:30am 24.8 S 9 11 1014.3 - 0.0 - - - - - - -
19/05:00am 24.5 S 8 9 1014.3 - 0.0 - - - - - - -
19/04:30am 24.3 S 8 9 1014.6 - 0.0 - - - - - - -
19/04:00am 24.1 SSE 8 9 1014.7 - 0.0 - - - - - - -
19/03:30am 24.2 SSE 8 9 1015.0 - 0.0 - - - - - - -
19/03:00am 24.1 SE 5 6 1015.2 - 0.0 - - - - - - -
19/02:30am 25.1 E 4 5 1015.4 - 0.0 - - - - - - -
19/02:00am 25.3 ENE 6 6 1015.6 - 0.0 - - - - - - -
19/01:30am 25.4 NE 6 8 1015.7 - 0.0 - - - - - - -
19/01:00am 25.8 NE 7 8 1015.7 - 0.0 - - - - - - -
19/12:30am 25.9 NE 8 9 1015.6 - 0.0 - - - - - - -
19/12:00am 26.1 NE 9 11 1015.7 - 0.0 - - - - - - -
 
Date/Time
CST
Temp
°C
Wind Pressure Rain since
9am
mm
Weather Cloud Vis
km
Sea
Height
m
Swell
Dir  Spd
kts
Gust
kts
hPa Trend Height
m
Period
s
Dir
18/11:30pm 26.4 NE 11 13 1015.8 - 0.0 - - - - - - -
18/11:00pm 26.3 ENE 12 14 1015.9 - 0.0 - - - - - - -
18/10:30pm 26.6 ENE 13 16 1015.7 - 0.0 - - - - - - -
18/10:00pm 26.8 ENE 14 16 1015.5 - 0.0 - - - - - - -
18/09:30pm 26.9 ENE 14 17 1015.3 - 0.0 - - - - - - -
18/09:00pm 26.8 ENE 15 18 1014.9 - 0.0 - - - - - - -
18/08:30pm 27.0 ENE 15 18 1014.5 - 0.0 - - - - - - -
18/08:00pm 27.0 ENE 14 16 1014.1 - 0.0 - - - - - - -
18/07:30pm 27.2 ENE 14 17 1013.8 - 0.0 - - - - - - -
18/07:00pm 27.3 ENE 14 17 1013.7 - 0.0 - - - - - - -
18/06:30pm 27.7 ENE 14 17 1013.6 - 0.0 - - - - - - -
18/06:00pm 28.2 ENE 13 17 1013.5 - 0.0 - - - - - - -

Other Formats:

Comma delimited format used in spreadsheet applications
http://www.bom.gov.au/fwo/IDD60701/IDD60701.94102.axf

JavaScript Object Notation format (JSON) in row-major order
http://www.bom.gov.au/fwo/IDD60701/IDD60701.94102.json